Weather reports worldwide

Advertisment
Passo Rolle, Italy (16021): temperature & dewpoint: 11.08.2018 22:00:00 - 17.08.2018 22:00:00 (CEST)Passo Rolle, Italy (16021): wind speed: 11.08.2018 22:00:00 - 17.08.2018 22:00:00 (CEST)Passo Rolle, Italy (16021): wind direction: 11.08.2018 22:00:00 - 17.08.2018 22:00:00 (CEST)Passo Rolle, Italy (16021): visibility: 11.08.2018 22:00:00 - 17.08.2018 22:00:00 (CEST)
Date & Time tt [°C] td [°C] ff [km/h] ff [kn] dd vv [km]
17.08.2018 22:00:00 - - - - - -
17.08.2018 21:00:00 - - - - - -
17.08.2018 20:00:00 13,4 9,5 15 8 SE 10
17.08.2018 19:00:00 13,0 11,0 16 9 SE 10
17.08.2018 18:00:00 13,0 12,0 21 11 ESE 10
17.08.2018 17:00:00 13,4 11,6 18 10 SE 10
17.08.2018 16:00:00 15,0 10,0 22 12 SE 10
17.08.2018 15:00:00 15,0 9,0 21 11 SE 10
17.08.2018 14:00:00 15,6 8,1 16 9 SE 35
17.08.2018 13:00:00 17,0 8,0 13 7 SE 10
17.08.2018 12:00:00 14,0 6,0 9 5 W 10
17.08.2018 11:00:00 13,6 6,7 8 4 WNW 40
17.08.2018 10:00:00 12,0 6,0 8 4 WNW 10
17.08.2018 09:00:00 11,0 7,0 8 4 NNW 10
17.08.2018 08:00:00 9,4 7,5 9 5 N 35
17.08.2018 07:00:00 10,0 8,0 8 4 NNW 10
17.08.2018 06:00:00 10,0 7,0 4 2 NNW 10
17.08.2018 05:00:00 9,8 7,2 8 4 N 10
17.08.2018 04:00:00 - - - - - -
17.08.2018 03:00:00 - - - - - -
17.08.2018 02:00:00 9,8 8,7 13 7 ESE 10
17.08.2018 01:00:00 - - - - - -
17.08.2018 00:00:00 - - - - - -
16.08.2018 23:00:00 10,4 8,3 11 6 SE 10
16.08.2018 22:00:00 - - - - - -
16.08.2018 21:00:00 - - - - - -
16.08.2018 20:00:00 11,6 10,2 22 12 SE 20
16.08.2018 19:00:00 13,0 9,0 22 12 SE 10
16.08.2018 18:00:00 13,0 9,0 22 12 SE 10
16.08.2018 17:00:00 13,6 6,5 24 13 SE 10
16.08.2018 16:00:00 14,0 8,0 26 14 SE 10
16.08.2018 15:00:00 15,0 8,0 21 11 SE 10
16.08.2018 14:00:00 14,8 8,5 18 10 N 35
16.08.2018 13:00:00 13,0 7,0 15 8 SE 10
16.08.2018 12:00:00 13,0 6,0 13 7 SE 10
16.08.2018 11:00:00 12,2 5,4 8 4 S 20
16.08.2018 10:00:00 11,0 6,0 5 3 W 10
16.08.2018 09:00:00 9,0 6,0 8 4 N 10
16.08.2018 08:00:00 8,8 5,7 2 1 NNE 20
16.08.2018 07:00:00 8,0 5,0 8 4 N 10
16.08.2018 06:00:00 9,0 6,0 5 3 NNW 10
16.08.2018 05:00:00 9,2 8,7 5 3 N 10
16.08.2018 04:00:00 - - - - - -
16.08.2018 03:00:00 - - - - - -
16.08.2018 02:00:00 9,8 8,6 4 2 E 10
16.08.2018 01:00:00 - - - - - -
16.08.2018 00:00:00 - - - - - -
15.08.2018 23:00:00 9,8 8,7 8 4 ESE 10
15.08.2018 22:00:00 - - - - - -
15.08.2018 21:00:00 - - - - - -
15.08.2018 20:00:00 12,4 7,5 16 9 ESE 50
15.08.2018 19:00:00 12,0 9,0 9 5 SE 10
15.08.2018 18:00:00 13,0 8,0 11 6 SE 10
15.08.2018 17:00:00 13,8 6,9 8 4 SE 72
15.08.2018 16:00:00 14,0 6,0 13 7 SE 10
15.08.2018 15:00:00 15,0 5,0 15 8 SE 10
15.08.2018 14:00:00 14,2 3,7 15 8 SE 72
15.08.2018 13:00:00 14,0 3,0 11 6 SE 10
15.08.2018 12:00:00 14,0 2,0 13 7 SE 10
15.08.2018 11:00:00 12,6 2,7 9 5 WNW 72
15.08.2018 10:00:00 11,0 2,0 11 6 W 10
15.08.2018 09:00:00 10,0 4,0 9 5 WNW 10
15.08.2018 08:00:00 7,4 2,3 11 6 NW 72
15.08.2018 07:00:00 7,0 2,0 9 5 NW 10
15.08.2018 06:00:00 7,0 2,0 5 3 NW 10
15.08.2018 05:00:00 7,2 2,7 9 5 NNW 10
15.08.2018 04:00:00 - - - - - -
15.08.2018 03:00:00 - - - - - -
15.08.2018 02:00:00 7,8 5,3 13 7 NW 10
15.08.2018 01:00:00 - - - - - -
15.08.2018 00:00:00 - - - - - -
14.08.2018 23:00:00 9,0 6,6 8 4 NNW 10
14.08.2018 22:00:00 - - - - - -
14.08.2018 21:00:00 - - - - - -
14.08.2018 20:00:00 9,4 7,5 11 6 WNW 20
14.08.2018 19:00:00 10,0 8,0 2 1 W 10
14.08.2018 18:00:00 10,0 8,0 5 3 SW 10
14.08.2018 17:00:00 11,0 7,7 15 8 N 10
14.08.2018 16:00:00 15,0 7,0 9 5 SE 10
14.08.2018 15:00:00 14,0 9,0 9 5 ESE 10
14.08.2018 14:00:00 11,2 8,4 9 5 ESE 15
14.08.2018 13:00:00 10,0 7,0 9 5 SE 10
14.08.2018 12:00:00 14,0 8,0 8 4 NE 10
14.08.2018 11:00:00 12,2 6,7 4 2 SSW 20
14.08.2018 10:00:00 13,0 4,0 8 4 W 10
14.08.2018 09:00:00 10,0 6,0 2 1 NNW 10
14.08.2018 08:00:00 9,0 5,2 2 1 NW 20
14.08.2018 07:00:00 8,0 5,0 9 5 N 10
14.08.2018 06:00:00 9,0 7,0 8 4 NNW 0,5
14.08.2018 05:00:00 8,8 7,2 8 4 NW 0,1
14.08.2018 04:00:00 - - - - - -
14.08.2018 03:00:00 - - - - - -
14.08.2018 02:00:00 10,0 7,6 5 3 WNW 0,4
14.08.2018 01:00:00 - - - - - -
14.08.2018 00:00:00 - - - - - -
13.08.2018 23:00:00 10,8 9,2 8 4 E 0,1
13.08.2018 22:00:00 - - - - - -
13.08.2018 21:00:00 - - - - - -
13.08.2018 20:00:00 12,6 10,0 11 6 ESE 10
13.08.2018 19:00:00 12,0 10,0 11 6 SSE 0,6
13.08.2018 18:00:00 13,0 11,0 9 5 SSE 10
13.08.2018 17:00:00 12,0 10,4 9 5 W 0,6
13.08.2018 16:00:00 14,0 9,0 21 11 SE 0,8
13.08.2018 15:00:00 14,0 9,0 21 11 SE 10
13.08.2018 14:00:00 14,8 7,6 21 11 SE 15
13.08.2018 13:00:00 16,0 8,0 24 13 SE 10
13.08.2018 12:00:00 15,0 8,0 16 9 SE 10
13.08.2018 11:00:00 13,8 8,6 15 8 ESE 15
13.08.2018 10:00:00 12,0 10,0 15 8 SE 10
13.08.2018 09:00:00 11,0 10,0 21 11 ESE 10
13.08.2018 08:00:00 9,8 8,4 11 6 ESE 20
13.08.2018 07:00:00 10,0 7,0 11 6 ESE 10
13.08.2018 06:00:00 10,0 6,0 11 6 ESE 10
13.08.2018 05:00:00 10,2 7,6 2 1 NNE 10
13.08.2018 04:00:00 - - - - - -
13.08.2018 03:00:00 - - - - - -
13.08.2018 02:00:00 10,4 9,2 11 6 SE 10
13.08.2018 01:00:00 - - - - - -
13.08.2018 00:00:00 - - - - - -
12.08.2018 23:00:00 10,6 9,0 9 5 ESE 10
12.08.2018 22:00:00 - - - - - -
12.08.2018 21:00:00 - - - - - -
12.08.2018 20:00:00 12,8 10,5 15 8 SE 15
12.08.2018 19:00:00 13,0 11,0 18 10 SE 10
12.08.2018 18:00:00 13,0 9,0 22 12 SE 10
12.08.2018 17:00:00 15,8 10,4 21 11 SE 20
12.08.2018 16:00:00 14,0 9,0 24 13 SE 10
12.08.2018 15:00:00 14,0 9,0 18 10 SE 10
12.08.2018 14:00:00 15,2 8,0 21 11 SE 15
12.08.2018 13:00:00 15,0 9,0 24 13 SE 10
12.08.2018 12:00:00 15,0 9,0 21 11 SE 10
12.08.2018 11:00:00 13,4 9,7 16 9 ESE 10
12.08.2018 10:00:00 12,0 9,0 18 10 SE 10
12.08.2018 09:00:00 10,0 9,0 21 11 SE 0,3
12.08.2018 08:00:00 10,0 8,1 18 10 SE 0,1
12.08.2018 07:00:00 10,0 8,0 16 9 SE 0,3
12.08.2018 06:00:00 10,0 8,0 15 8 ESE 0,3
12.08.2018 05:00:00 9,8 8,2 11 6 ESE 0,1
12.08.2018 04:00:00 - - - - - -
12.08.2018 03:00:00 - - - - - -
12.08.2018 02:00:00 10,0 8,4 15 8 ESE 0,3
12.08.2018 01:00:00 - - - - - -
12.08.2018 00:00:00 - - - - - -
11.08.2018 23:00:00 11,0 7,3 9 5 ESE 10
11.08.2018 22:00:00 - - - - - -

tt = temperature
td = dewpoint
ff = wind speed
dd = wind direction
vv = visibility

Next stations